Time;durP1;ratioP1;P1;durP2;ratioP2;P2;SDS_P1;SDS_P2;PMS_P1;PMS_P2;Temp;Humidity;BMP_temperature;BMP_pressure;BME280_temperature;BME280_humidity;BME280_pressure;Samples;Min_cycle;Max_cycle;Signal;HPM_P1;HPM_P2
2022/01/03 00:00:58;;;;;;;;;1.00;1.00;;;;;13.69;100.00;101583.75;5039648;28;45488;-81
2022/01/03 00:03:25;;;;;;;;;4.00;2.75;;;;;13.68;100.00;101585.47;5039476;28;45295;-81
2022/01/03 00:05:50;;;;;;;;;6.75;4.75;;;;;13.67;100.00;101606.22;5039131;28;45416;-81
2022/01/03 00:08:16;;;;;;;;;5.25;2.25;;;;;13.67;100.00;101583.69;5039385;28;45346;-81
2022/01/03 00:10:41;;;;;;;;;2.00;2.00;;;;;13.66;100.00;101579.31;5038598;28;45446;-81
2022/01/03 00:13:07;;;;;;;;;2.00;2.00;;;;;13.69;100.00;101584.66;5039183;28;45379;-81
2022/01/03 00:15:33;;;;;;;;;5.50;2.75;;;;;13.70;100.00;101583.84;5038944;28;45494;-80
2022/01/03 00:17:58;;;;;;;;;1.50;1.50;;;;;13.70;100.00;101588.13;5038875;28;45417;-80
2022/01/03 00:20:26;;;;;;;;;3.00;3.00;;;;;13.72;100.00;101592.59;5039601;28;45362;-80
2022/01/03 00:23:03;;;;;;;;;6.50;3.50;;;;;13.71;100.00;101583.03;5038689;28;45381;-81
2022/01/03 00:25:30;;;;;;;;;5.25;3.00;;;;;13.71;100.00;101587.31;5038791;28;45320;-81
2022/01/03 00:28:04;;;;;;;;;5.75;3.25;;;;;13.71;100.00;101602.94;5039359;28;45311;-80
2022/01/03 00:30:34;;;;;;;;;6.00;2.75;;;;;13.69;100.00;101591.56;5039206;28;45652;-80
2022/01/03 00:33:02;;;;;;;;;8.75;3.00;;;;;13.67;100.00;101596.72;5020222;28;46208;-80
2022/01/03 00:35:29;;;;;;;;;3.75;2.00;;;;;13.69;100.00;101614.97;5038449;28;45723;-80
2022/01/03 00:37:57;;;;;;;;;8.25;3.50;;;;;13.68;100.00;101606.31;5039109;28;45260;-80
2022/01/03 00:40:25;;;;;;;;;4.00;1.00;;;;;13.71;100.00;101624.66;5039631;28;45490;-80
2022/01/03 00:42:51;;;;;;;;;4.00;4.00;;;;;13.72;100.00;101616.00;5038724;28;45371;-80
2022/01/03 00:45:17;;;;;;;;;4.75;2.00;;;;;13.70;100.00;101609.88;5038033;28;45667;-80
2022/01/03 00:47:44;;;;;;;;;5.00;2.75;;;;;13.67;100.00;101609.72;5018748;28;45366;-81
2022/01/03 00:50:15;;;;;;;;;2.00;2.00;;;;;13.67;100.00;101614.00;5022157;28;45348;-80
2022/01/03 00:52:45;;;;;;;;;7.75;2.25;;;;;13.69;100.00;101612.38;5036917;28;46404;-80
2022/01/03 00:55:11;;;;;;;;;3.00;2.00;;;;;13.68;100.00;101608.91;5038692;28;45534;-81
2022/01/03 00:58:02;;;;;;;;;3.50;2.50;;;;;13.70;100.00;101614.16;5037720;28;45401;-81
2022/01/03 01:00:31;;;;;;;;;5.25;3.25;;;;;13.71;100.00;101616.84;5038572;28;45286;-81
2022/01/03 01:03:10;;;;;;;;;8.50;2.75;;;;;13.72;100.00;101616.00;5020337;28;47788;-80
2022/01/03 01:05:40;;;;;;;;;4.25;2.00;;;;;13.72;100.00;101615.13;5038142;28;45212;-80
2022/01/03 01:08:06;;;;;;;;;5.75;3.00;;;;;13.72;100.00;101618.59;5038154;28;45394;-81
2022/01/03 01:10:35;;;;;;;;;3.25;1.25;;;;;13.71;100.00;101629.88;5038590;28;45586;-80
2022/01/03 01:13:03;;;;;;;;;6.75;3.75;;;;;13.68;100.00;101623.59;5037301;28;46153;-80
2022/01/03 01:15:29;;;;;;;;;5.25;2.25;;;;;13.67;100.00;101619.22;5037980;28;45231;-80
2022/01/03 01:17:57;;;;;;;;;3.75;2.00;;;;;13.66;100.00;101609.66;5038715;28;45417;-80
2022/01/03 01:20:25;;;;;;;;;6.75;3.50;;;;;13.64;100.00;101608.69;5038600;28;45461;-80
2022/01/03 01:22:51;;;;;;;;;5.00;2.75;;;;;13.62;100.00;101606.00;5037480;28;45285;-80
2022/01/03 01:27:50;;;;;;;;;7.00;3.75;;;;;13.62;100.00;101630.34;5037771;28;45253;-80
2022/01/03 01:30:18;;;;;;;;;8.25;3.25;;;;;13.62;100.00;101608.59;5038081;28;45173;-81
2022/01/03 01:32:52;;;;;;;;;5.00;3.00;;;;;13.61;100.00;101607.72;5038031;28;46488;-80
2022/01/03 01:35:22;;;;;;;;;7.25;3.25;;;;;13.61;100.00;101604.22;5037751;28;45754;-80
2022/01/03 01:37:51;;;;;;;;;4.75;2.50;;;;;13.55;100.00;101604.84;5037766;28;45352;-80
2022/01/03 01:40:17;;;;;;;;;4.50;2.50;;;;;13.52;100.00;101586.50;5037680;28;45549;-80
2022/01/03 01:42:47;;;;;;;;;4.50;3.00;;;;;13.51;100.00;101594.22;5037687;28;48290;-80
2022/01/03 01:45:16;;;;;;;;;4.00;2.00;;;;;13.44;100.00;101601.75;5037494;28;45346;-80
2022/01/03 01:47:46;;;;;;;;;5.75;4.75;;;;;13.43;100.00;101599.09;5037287;28;45233;-80
2022/01/03 01:50:12;;;;;;;;;3.25;2.00;;;;;13.39;100.00;101589.31;5037802;28;45360;-80
2022/01/03 01:52:38;;;;;;;;;5.00;2.50;;;;;13.35;100.00;101595.19;5037088;28;45299;-80
2022/01/03 01:55:08;;;;;;;;;3.50;2.00;;;;;13.33;100.00;101595.13;5037046;28;45406;-80
2022/01/03 01:57:55;;;;;;;;;5.00;2.00;;;;;13.34;100.00;101580.41;5037824;28;45368;-80
2022/01/03 02:00:22;;;;;;;;;6.75;3.00;;;;;13.30;100.00;101579.38;5037666;28;45446;-80
2022/01/03 02:03:13;;;;;;;;;7.50;4.50;;;;;13.29;100.00;101573.31;5035701;28;46580;-80
2022/01/03 02:06:12;;;;;;;;;3.00;3.00;;;;;13.28;100.00;101588.84;5037406;28;45229;-80
2022/01/03 02:08:44;;;;;;;;;3.25;3.00;;;;;13.26;100.00;101585.28;5036987;28;45378;-80
2022/01/03 02:11:44;;;;;;;;;5.75;3.75;;;;;13.25;100.00;101584.38;5036419;28;45811;-81
2022/01/03 02:14:11;;;;;;;;;3.50;3.50;;;;;13.24;100.00;101598.19;5037030;28;46616;-80
2022/01/03 02:16:38;;;;;;;;;3.00;2.00;;;;;13.22;100.00;101594.66;5037298;28;45710;-80
2022/01/03 02:19:03;;;;;;;;;2.75;1.75;;;;;13.21;100.00;101597.16;5037254;28;45257;-80
2022/01/03 02:21:29;;;;;;;;;5.50;3.00;;;;;13.20;100.00;101577.19;5037921;28;45309;-80
2022/01/03 02:23:55;;;;;;;;;3.00;1.25;;;;;13.20;100.00;101580.69;5036401;28;46313;-80
2022/01/03 02:26:20;;;;;;;;;2.75;1.75;;;;;13.19;100.00;101588.41;5036887;28;45461;-80
2022/01/03 02:28:46;;;;;;;;;9.00;3.75;;;;;13.20;100.00;101601.50;5036747;28;45468;-80
2022/01/03 02:31:12;;;;;;;;;2.50;2.00;;;;;13.18;100.00;101587.53;5036618;28;45516;-79
2022/01/03 02:33:38;;;;;;;;;6.00;3.50;;;;;13.18;100.00;101616.13;5036569;28;45966;-80
2022/01/03 02:36:05;;;;;;;;;5.25;2.00;;;;;13.19;100.00;101604.91;5036550;28;45346;-80
2022/01/03 02:38:30;;;;;;;;;3.75;3.50;;;;;13.19;100.00;101609.19;5037285;28;45339;-80
2022/01/03 02:40:56;;;;;;;;;5.00;3.25;;;;;13.16;100.00;101607.34;5036826;28;45477;-80
2022/01/03 02:43:23;;;;;;;;;3.00;2.00;;;;;13.15;100.00;101603.88;5036547;28;46014;-80
2022/01/03 02:45:48;;;;;;;;;8.00;4.00;;;;;13.16;100.00;101592.66;5036409;28;45434;-80
2022/01/03 02:48:14;;;;;;;;;4.25;1.75;;;;;13.18;100.00;101584.91;5036796;28;45482;-80
2022/01/03 02:50:40;;;;;;;;;4.00;2.50;;;;;13.19;100.00;101583.19;5036571;28;45564;-80
2022/01/03 02:53:05;;;;;;;;;5.50;2.75;;;;;13.19;100.00;101599.72;5018907;28;45460;-80
2022/01/03 02:55:32;;;;;;;;;5.25;2.50;;;;;13.17;100.00;101596.13;5035697;28;45516;-80
2022/01/03 02:58:05;;;;;;;;;4.00;2.75;;;;;13.16;100.00;101597.88;5037264;28;45341;-80
2022/01/03 03:00:33;;;;;;;;;3.50;2.50;;;;;13.18;100.00;101594.41;5036699;28;45548;-80
2022/01/03 03:02:58;;;;;;;;;3.25;2.25;;;;;13.21;100.00;101587.69;5036426;28;46410;-81
2022/01/03 03:05:24;;;;;;;;;3.75;2.00;;;;;13.25;100.00;101591.31;5036425;28;45346;-80
2022/01/03 03:07:50;;;;;;;;;3.25;2.75;;;;;13.24;100.00;101574.78;5035129;28;45412;-80
2022/01/03 03:10:19;;;;;;;;;7.00;4.25;;;;;13.23;100.00;101575.59;5036735;28;45251;-79
2022/01/03 03:12:47;;;;;;;;;4.50;2.00;;;;;13.22;100.00;101563.44;5018424;28;45825;-80
2022/01/03 03:15:14;;;;;;;;;4.25;2.75;;;;;13.22;100.00;101558.25;5036683;28;45784;-80
2022/01/03 03:17:41;;;;;;;;;4.75;2.00;;;;;13.23;100.00;101552.19;5036070;28;45318;-80
2022/01/03 03:20:13;;;;;;;;;3.00;3.00;;;;;13.24;100.00;101561.78;5036972;28;45556;-80
2022/01/03 03:22:40;;;;;;;;;5.75;2.00;;;;;13.24;100.00;101566.13;5035184;28;45486;-80
2022/01/03 03:25:16;;;;;;;;;3.50;3.00;;;;;13.28;100.00;101565.44;5036059;28;45786;-80
2022/01/03 03:27:46;;;;;;;;;6.25;2.50;;;;;13.28;100.00;101560.25;5036562;28;45283;-80
2022/01/03 03:30:19;;;;;;;;;2.75;2.00;;;;;13.26;100.00;101560.16;5018325;28;45641;-80
2022/01/03 03:32:46;;;;;;;;;6.50;2.50;;;;;13.25;100.00;101560.09;5018400;28;47277;-80
2022/01/03 03:35:11;;;;;;;;;2.50;1.50;;;;;13.25;100.00;101555.78;5035864;28;46492;-80
2022/01/03 03:37:37;;;;;;;;;5.25;3.00;;;;;13.26;100.00;101560.16;5036311;28;45422;-80
2022/01/03 03:40:05;;;;;;;;;4.75;1.00;;;;;13.25;100.00;101560.09;5036525;28;45390;-81
2022/01/03 03:42:30;;;;;;;;;3.50;2.50;;;;;13.23;100.00;101564.31;5036033;28;46106;-81
2022/01/03 03:44:56;;;;;;;;;6.00;1.25;;;;;13.24;100.00;101559.19;5036115;28;45434;-80
2022/01/03 03:47:21;;;;;;;;;4.00;3.00;;;;;13.25;100.00;101547.97;5035843;28;45393;-80
2022/01/03 03:49:47;;;;;;;;;6.00;4.00;;;;;13.29;100.00;101552.50;5036316;28;45549;-81
2022/01/03 03:52:13;;;;;;;;;6.25;3.25;;;;;13.32;100.00;101549.13;5035659;28;45283;-80
2022/01/03 03:54:38;;;;;;;;;7.50;3.00;;;;;13.34;100.00;101544.91;5035959;28;45260;-80
2022/01/03 03:57:05;;;;;;;;;2.00;2.00;;;;;13.35;100.00;101541.50;5035838;28;45292;-80
2022/01/03 03:59:31;;;;;;;;;5.00;1.00;;;;;13.37;100.00;101555.47;5018486;28;45657;-80
2022/01/03 04:01:57;;;;;;;;;3.75;2.00;;;;;13.35;100.00;101533.69;5035282;28;45575;-80
2022/01/03 04:04:23;;;;;;;;;7.00;3.25;;;;;13.36;100.00;101539.75;5035033;28;46053;-80
2022/01/03 04:06:50;;;;;;;;;3.75;2.00;;;;;13.35;100.00;101532.78;5017790;28;45502;-81
2022/01/03 04:09:16;;;;;;;;;6.75;3.00;;;;;13.35;100.00;101531.09;5036212;28;45408;-80
2022/01/03 04:11:41;;;;;;;;;5.25;1.75;;;;;13.36;100.00;101530.25;5035413;28;45381;-80
2022/01/03 04:14:07;;;;;;;;;6.25;3.00;;;;;13.37;100.00;101532.06;5035523;28;45264;-80
2022/01/03 04:16:34;;;;;;;;;2.50;2.00;;;;;13.37;100.00;101524.25;5035881;28;45491;-80
2022/01/03 04:19:00;;;;;;;;;6.00;2.75;;;;;13.37;100.00;101526.84;5036608;28;45284;-80
2022/01/03 04:21:26;;;;;;;;;5.00;2.50;;;;;13.37;100.00;101520.75;5034892;28;46049;-80
2022/01/03 04:23:52;;;;;;;;;4.50;2.25;;;;;13.35;100.00;101509.38;5035163;28;45461;-80
2022/01/03 04:26:18;;;;;;;;;8.00;2.50;;;;;13.36;100.00;101500.75;5035018;28;45448;-80
2022/01/03 04:28:44;;;;;;;;;4.50;2.00;;;;;13.35;100.00;101505.06;5035419;28;45424;-80
2022/01/03 04:31:10;;;;;;;;;3.75;2.25;;;;;13.32;100.00;101503.22;5034765;28;45472;-80
2022/01/03 04:33:35;;;;;;;;;3.50;1.00;;;;;13.30;100.00;101506.56;5036495;28;45501;-79
2022/01/03 04:36:01;;;;;;;;;4.75;1.75;;;;;13.27;100.00;101499.53;5040320;28;45326;-81
2022/01/03 04:38:27;;;;;;;;;4.75;2.00;;;;;13.28;100.00;101496.09;5039380;28;45214;-81
2022/01/03 04:40:53;;;;;;;;;4.00;3.50;;;;;13.30;100.00;101506.56;5038571;28;45390;-80
2022/01/03 04:43:18;;;;;;;;;5.00;2.00;;;;;13.30;100.00;101496.16;5038740;28;45403;-81
2022/01/03 04:45:44;;;;;;;;;3.75;1.75;;;;;13.30;100.00;101490.97;5038652;28;45255;-80
2022/01/03 04:48:10;;;;;;;;;9.25;3.00;;;;;13.31;100.00;101496.25;5038979;28;45633;-80
2022/01/03 04:50:36;;;;;;;;;3.00;2.25;;;;;13.31;100.00;101500.53;5038145;28;45941;-81
2022/01/03 04:53:03;;;;;;;;;7.25;3.00;;;;;13.30;100.00;101503.97;5038667;28;45362;-81
2022/01/03 04:55:28;;;;;;;;;6.00;2.25;;;;;13.28;100.00;101490.91;5038660;28;45848;-81
2022/01/03 04:57:54;;;;;;;;;4.25;2.25;;;;;13.28;100.00;101492.63;5038735;28;45600;-81
2022/01/03 05:00:20;;;;;;;;;6.00;2.75;;;;;13.25;100.00;101495.09;5038227;28;45520;-81
2022/01/03 05:02:47;;;;;;;;;5.75;2.75;;;;;13.23;100.00;101484.59;5038624;28;45171;-80
2022/01/03 05:05:13;;;;;;;;;5.25;3.00;;;;;13.20;100.00;101487.09;5019773;28;45427;-81
2022/01/03 05:07:39;;;;;;;;;6.75;3.75;;;;;13.18;100.00;101478.31;5038615;28;45368;-80
2022/01/03 05:10:05;;;;;;;;;5.75;1.75;;;;;13.17;100.00;101481.72;5020089;28;47558;-81
2022/01/03 05:12:31;;;;;;;;;3.25;1.25;;;;;13.17;100.00;101484.34;5038741;28;45906;-81
2022/01/03 05:14:56;;;;;;;;;2.75;2.00;;;;;13.18;100.00;101483.50;5038562;28;45417;-81
2022/01/03 05:17:22;;;;;;;;;6.00;3.25;;;;;13.18;100.00;101485.22;5020155;28;45472;-79
2022/01/03 05:19:47;;;;;;;;;2.50;1.50;;;;;13.20;100.00;101473.16;5037910;28;45689;-79
2022/01/03 05:22:13;;;;;;;;;3.00;0.50;;;;;13.22;100.00;101484.53;5038140;28;45338;-79
2022/01/03 05:24:39;;;;;;;;;3.50;2.00;;;;;13.22;100.00;101482.84;5037464;28;45985;-79
2022/01/03 05:27:08;;;;;;;;;5.00;3.00;;;;;13.23;100.00;101482.00;5038132;28;45358;-79
2022/01/03 05:29:34;;;;;;;;;5.00;1.00;;;;;13.21;100.00;101481.06;5036464;28;47986;-79
2022/01/03 05:32:00;;;;;;;;;4.75;4.75;;;;;13.25;100.00;101480.34;5038414;28;45227;-79
2022/01/03 05:34:26;;;;;;;;;4.00;3.00;;;;;13.26;100.00;101487.34;5038054;28;45422;-78
2022/01/03 05:36:52;;;;;;;;;4.00;1.50;;;;;13.30;100.00;101485.75;5037625;28;45611;-79
2022/01/03 05:39:18;;;;;;;;;4.75;2.50;;;;;13.31;100.00;101493.66;5037418;28;45326;-80
2022/01/03 05:41:43;;;;;;;;;4.75;2.00;;;;;13.31;100.00;101496.25;5037057;28;45349;-79
2022/01/03 05:44:09;;;;;;;;;6.00;4.50;;;;;13.27;100.00;101481.31;5037856;28;45845;-79
2022/01/03 05:46:36;;;;;;;;;2.00;1.00;;;;;13.29;100.00;101484.88;5037920;28;45548;-79
2022/01/03 05:49:02;;;;;;;;;5.75;2.00;;;;;13.27;100.00;101476.13;5037962;28;45906;-80
2022/01/03 05:51:28;;;;;;;;;3.50;2.00;;;;;13.29;100.00;101479.69;5039766;28;45375;-80
2022/01/03 05:53:53;;;;;;;;;3.50;2.00;;;;;13.28;100.00;101483.09;5038161;28;45281;-80
2022/01/03 05:56:20;;;;;;;;;7.00;2.00;;;;;13.28;100.00;101487.44;5037664;28;45668;-80
2022/01/03 05:58:46;;;;;;;;;5.75;2.50;;;;;13.28;100.00;101488.31;5038787;28;45506;-79
2022/01/03 06:01:12;;;;;;;;;4.50;3.00;;;;;13.29;100.00;101483.97;5037336;28;45779;-79
2022/01/03 06:03:39;;;;;;;;;5.00;2.00;;;;;13.27;100.00;101491.72;5036241;28;45432;-79
2022/01/03 06:08:35;;;;;;;;;7.00;3.75;;;;;13.30;100.00;101478.88;5037478;28;45777;-81
2022/01/03 06:11:00;;;;;;;;;8.25;4.75;;;;;13.31;100.00;101471.94;5019417;28;45392;-79
2022/01/03 06:13:26;;;;;;;;;4.25;2.25;;;;;13.29;100.00;101477.09;5037515;28;45407;-80
2022/01/03 06:15:52;;;;;;;;;2.25;1.75;;;;;13.31;100.00;101480.66;5036360;28;45560;-81
2022/01/03 06:18:18;;;;;;;;;2.25;1.75;;;;;13.31;100.00;101483.25;5037033;28;45331;-80
2022/01/03 06:20:49;;;;;;;;;2.75;2.00;;;;;13.28;100.00;101490.03;5037062;28;45424;-80
2022/01/03 06:23:16;;;;;;;;;5.00;2.00;;;;;13.28;100.00;101484.84;5037015;28;45398;-80
2022/01/03 06:25:42;;;;;;;;;3.00;1.75;;;;;13.31;100.00;101479.75;5019199;28;45464;-80
2022/01/03 06:28:08;;;;;;;;;6.00;2.75;;;;;13.30;100.00;101464.97;5036372;28;45409;-80
2022/01/03 06:30:35;;;;;;;;;7.50;3.50;;;;;13.32;100.00;101468.53;5036474;28;45788;-80
2022/01/03 06:33:02;;;;;;;;;4.25;2.00;;;;;13.31;100.00;101472.84;5021445;28;45520;-79
2022/01/03 06:35:28;;;;;;;;;5.50;2.50;;;;;13.33;100.00;101467.69;5036531;28;45612;-80
2022/01/03 06:37:54;;;;;;;;;2.00;2.00;;;;;13.32;100.00;101471.13;5035983;28;45904;-81
2022/01/03 06:40:20;;;;;;;;;2.25;2.25;;;;;13.29;100.00;101458.88;5035973;28;45369;-80
2022/01/03 06:42:46;;;;;;;;;6.25;3.00;;;;;13.30;100.00;101444.16;5033806;28;45324;-80
2022/01/03 06:45:11;;;;;;;;;4.25;3.00;;;;;13.29;100.00;101453.69;5047195;28;45608;-80
2022/01/03 06:47:37;;;;;;;;;8.50;3.00;;;;;13.28;100.00;101456.22;5037965;28;45435;-81
2022/01/03 06:50:04;;;;;;;;;3.00;2.50;;;;;13.25;100.00;101463.88;5037140;28;45403;-81
2022/01/03 06:52:29;;;;;;;;;4.00;1.50;;;;;13.23;100.00;101456.00;5036464;28;45350;-81
2022/01/03 06:54:55;;;;;;;;;6.00;1.75;;;;;13.25;100.00;101458.69;5037104;28;45341;-79
2022/01/03 06:57:21;;;;;;;;;4.50;2.00;;;;;13.22;100.00;101462.03;5035484;28;46483;-78
2022/01/03 06:59:46;;;;;;;;;3.75;3.25;;;;;13.24;100.00;101451.69;5036244;28;45422;-79
2022/01/03 07:02:12;;;;;;;;;5.00;4.00;;;;;13.23;100.00;101461.19;5036486;28;45425;-78
2022/01/03 07:04:38;;;;;;;;;3.50;2.75;;;;;13.24;100.00;101454.28;5036947;28;45334;-78
2022/01/03 07:07:04;;;;;;;;;3.00;2.25;;;;;13.21;100.00;101449.84;5035825;28;45336;-79
2022/01/03 07:09:30;;;;;;;;;4.75;3.00;;;;;13.18;100.00;101444.50;5031209;28;45350;-79
2022/01/03 07:11:56;;;;;;;;;1.75;1.50;;;;;13.19;100.00;101448.91;5038442;28;45563;-81
2022/01/03 07:19:31;;;;;;;;;4.50;2.75;;;;;13.20;100.00;101437.69;5033382;28;45930;-81
2022/01/03 07:21:58;;;;;;;;;5.75;1.25;;;;;13.21;100.00;101441.16;5036004;28;45535;-80
2022/01/03 07:24:24;;;;;;;;;10.25;4.00;;;;;13.23;100.00;101442.13;5035201;28;45474;-79
2022/01/03 07:26:50;;;;;;;;;4.50;2.25;;;;;13.23;100.00;101443.00;5036902;28;46037;-78
2022/01/03 07:29:15;;;;;;;;;5.00;2.50;;;;;13.20;100.00;101424.69;5035193;28;45430;-78
2022/01/03 07:31:41;;;;;;;;;3.50;3.50;;;;;13.19;100.00;101443.69;5035345;28;45335;-78
2022/01/03 07:34:07;;;;;;;;;4.00;2.00;;;;;13.18;100.00;101434.13;5035047;28;45457;-78
2022/01/03 07:36:32;;;;;;;;;9.25;3.50;;;;;13.18;100.00;101436.72;5034931;28;45482;-79
2022/01/03 07:38:58;;;;;;;;;2.50;2.50;;;;;13.19;100.00;101429.78;5017760;28;45265;-78
2022/01/03 07:41:24;;;;;;;;;4.25;1.75;;;;;13.14;100.00;101407.09;5035408;28;45453;-79
2022/01/03 07:44:11;;;;;;;;;3.75;2.00;;;;;13.15;100.00;101431.38;5028325;28;45277;-79
2022/01/03 07:46:36;;;;;;;;;4.75;3.00;;;;;13.11;100.00;101427.75;5014404;28;45514;-81
2022/01/03 07:49:03;;;;;;;;;4.50;3.50;;;;;13.07;100.00;101425.81;5035586;28;45398;-77
2022/01/03 07:51:29;;;;;;;;;4.50;2.00;;;;;13.05;100.00;101414.50;5035056;28;45462;-79
2022/01/03 07:53:55;;;;;;;;;4.75;2.25;;;;;13.08;100.00;101413.72;5039206;28;45552;-76
2022/01/03 07:56:21;;;;;;;;;3.75;1.00;;;;;13.08;100.00;101430.19;5035140;28;45730;-78
2022/01/03 07:58:47;;;;;;;;;2.50;1.75;;;;;13.07;100.00;101423.22;5039736;28;45375;-78
2022/01/03 08:01:12;;;;;;;;;4.00;2.00;;;;;13.04;100.00;101420.50;5037378;28;45757;-78
2022/01/03 08:03:38;;;;;;;;;5.25;2.50;;;;;13.03;100.00;101403.13;5035324;28;45378;-77
2022/01/03 08:06:05;;;;;;;;;6.25;3.75;;;;;13.03;100.00;101413.53;5017724;28;47297;-80
2022/01/03 08:08:31;;;;;;;;;4.50;2.00;;;;;13.04;100.00;101399.72;5018770;28;45811;-79
2022/01/03 08:10:57;;;;;;;;;5.50;1.00;;;;;13.05;100.00;101401.50;5037825;28;45545;-77
2022/01/03 08:13:22;;;;;;;;;5.00;2.50;;;;;13.02;100.00;101398.75;5039028;28;45335;-77
2022/01/03 08:15:48;;;;;;;;;4.50;2.00;;;;;13.04;100.00;101404.00;5038513;28;46192;-76
2022/01/03 08:18:14;;;;;;;;;6.75;2.00;;;;;13.04;100.00;101411.81;5038000;28;45447;-79
2022/01/03 08:20:40;;;;;;;;;4.25;3.00;;;;;13.01;100.00;101413.44;5021158;28;45285;-77
2022/01/03 08:23:05;;;;;;;;;6.00;3.00;;;;;13.01;100.00;101413.44;5039592;28;45391;-78
2022/01/03 08:25:36;;;;;;;;;8.50;1.75;;;;;13.02;100.00;101398.75;5038833;28;45481;-78
2022/01/03 08:28:05;;;;;;;;;4.00;2.00;;;;;13.06;100.00;101394.56;5038644;28;45425;-78
2022/01/03 08:30:32;;;;;;;;;7.75;3.00;;;;;13.09;100.00;101393.00;5038944;28;45211;-78
2022/01/03 08:32:57;;;;;;;;;7.25;2.75;;;;;13.11;100.00;101393.94;5038909;28;45440;-80
2022/01/03 08:35:24;;;;;;;;;3.25;3.00;;;;;13.13;100.00;101387.13;5019222;28;47270;-77
2022/01/03 08:37:51;;;;;;;;;5.25;2.00;;;;;13.13;100.00;101394.91;5038619;28;45390;-78
2022/01/03 08:40:18;;;;;;;;;4.25;2.00;;;;;13.12;100.00;101382.72;5038822;28;45393;-79
2022/01/03 08:42:43;;;;;;;;;7.00;2.00;;;;;13.14;100.00;101378.50;5039177;28;45493;-81
2022/01/03 08:45:09;;;;;;;;;5.00;3.50;;;;;13.16;100.00;101384.66;5038471;28;45964;-79
2022/01/03 08:47:44;;;;;;;;;8.00;3.25;;;;;13.17;100.00;101380.34;5038877;28;45471;-80
2022/01/03 08:50:10;;;;;;;;;6.50;3.00;;;;;13.19;100.00;101378.69;5038566;28;45402;-79
2022/01/03 08:52:36;;;;;;;;;4.25;3.00;;;;;13.21;100.00;101378.75;5038972;28;45468;-80
2022/01/03 08:55:03;;;;;;;;;5.25;2.75;;;;;13.20;100.00;101359.66;5038142;28;46098;-78
2022/01/03 08:57:28;;;;;;;;;10.25;2.50;;;;;13.19;100.00;101382.97;5038491;28;45646;-78
2022/01/03 08:59:54;;;;;;;;;6.00;3.50;;;;;13.15;100.00;101376.78;5038508;28;45347;-79
2022/01/03 09:02:23;;;;;;;;;4.25;2.50;;;;;13.13;100.00;101373.22;5038677;28;45474;-79
2022/01/03 09:04:48;;;;;;;;;5.25;3.00;;;;;13.15;100.00;101372.47;5038428;28;46125;-79
2022/01/03 09:07:14;;;;;;;;;8.00;2.75;;;;;13.15;100.00;101376.78;5020154;28;45402;-78
2022/01/03 09:09:40;;;;;;;;;4.75;2.00;;;;;13.17;100.00;101380.34;5038495;28;45418;-78
2022/01/03 09:12:07;;;;;;;;;4.50;2.00;;;;;13.18;100.00;101368.19;5038644;28;45342;-78
2022/01/03 09:14:35;;;;;;;;;6.75;3.75;;;;;13.20;100.00;101377.88;5019922;28;48076;-78
2022/01/03 09:17:01;;;;;;;;;6.00;2.00;;;;;13.23;100.00;101385.78;5020282;28;45699;-80
2022/01/03 09:19:27;;;;;;;;;4.00;2.25;;;;;13.23;100.00;101362.38;5037900;28;45411;-81
2022/01/03 09:22:06;;;;;;;;;4.00;3.00;;;;;13.23;100.00;101367.56;5038610;28;45315;-81
2022/01/03 09:24:44;;;;;;;;;3.25;1.75;;;;;13.26;100.00;101377.25;5037960;28;46415;-79
2022/01/03 09:29:58;;;;;;;;;4.50;2.00;;;;;13.29;100.00;101369.56;5038089;28;45434;-80
2022/01/03 09:32:23;;;;;;;;;4.00;2.75;;;;;13.29;100.00;101375.66;5038393;28;45272;-81
2022/01/03 09:34:49;;;;;;;;;3.50;2.75;;;;;13.29;100.00;101372.16;5037770;28;45957;-80
2022/01/03 09:37:19;;;;;;;;;4.75;3.00;;;;;13.29;100.00;101372.16;5037894;28;45328;-79
2022/01/03 09:39:47;;;;;;;;;4.00;2.00;;;;;13.28;100.00;101355.69;5037931;28;45315;-81
2022/01/03 09:42:14;;;;;;;;;7.00;4.75;;;;;13.28;100.00;101366.06;5037847;28;45460;-81
2022/01/03 09:44:42;;;;;;;;;4.25;1.50;;;;;13.31;100.00;101361.03;5035838;28;46043;-77
2022/01/03 09:47:10;;;;;;;;;8.75;4.00;;;;;13.31;100.00;101380.91;5035567;28;45408;-78
2022/01/03 09:49:38;;;;;;;;;5.25;2.25;;;;;13.28;100.00;101373.88;5038101;28;45347;-82
2022/01/03 09:52:06;;;;;;;;;2.00;2.00;;;;;13.29;100.00;101370.47;5037931;28;45595;-83
2022/01/03 09:54:38;;;;;;;;;5.00;2.75;;;;;13.28;100.00;101366.06;5037796;28;46092;-81
2022/01/03 09:57:05;;;;;;;;;4.00;2.25;;;;;13.30;100.00;101368.75;5038693;28;45335;-86
2022/01/03 09:59:31;;;;;;;;;7.25;3.75;;;;;13.31;100.00;101379.22;5020033;28;45500;-78
2022/01/03 10:02:00;;;;;;;;;6.50;3.50;;;;;13.31;100.00;101358.41;5037811;28;45288;-77
2022/01/03 10:04:26;;;;;;;;;5.50;3.00;;;;;13.36;100.00;101371.63;5037187;28;45350;-77
2022/01/03 10:06:52;;;;;;;;;3.00;3.00;;;;;13.38;100.00;101358.66;5036715;28;45445;-79
2022/01/03 10:09:19;;;;;;;;;4.25;4.25;;;;;13.37;100.00;101360.38;5037537;28;45349;-79
2022/01/03 10:11:46;;;;;;;;;4.25;2.75;;;;;13.39;100.00;101373.44;5037544;28;45339;-78
2022/01/03 10:14:12;;;;;;;;;4.25;3.75;;;;;13.38;100.00;101356.97;5037076;28;45351;-80
2022/01/03 10:16:43;;;;;;;;;4.00;3.00;;;;;13.38;100.00;101359.56;5037733;28;45667;-78
2022/01/03 10:19:08;;;;;;;;;3.75;3.75;;;;;13.39;100.00;101368.25;5037592;28;45388;-79
2022/01/03 10:21:46;;;;;;;;;10.00;4.25;;;;;13.42;100.00;101350.22;5034546;28;45362;-77
2022/01/03 10:24:14;;;;;;;;;4.00;2.25;;;;;13.43;100.00;101339.00;5036971;28;45430;-79
2022/01/03 10:26:43;;;;;;;;;4.75;2.50;;;;;13.44;100.00;101366.78;5037355;28;45231;-79
2022/01/03 10:29:23;;;;;;;;;6.50;1.75;;;;;13.44;100.00;101358.97;5037264;28;45495;-79
2022/01/03 10:31:59;;;;;;;;;4.25;2.25;;;;;13.39;100.00;101345.75;5036193;28;45260;-80
2022/01/03 10:34:25;;;;;;;;;2.50;2.00;;;;;13.40;100.00;101341.44;5036978;28;45291;-80
2022/01/03 10:36:54;;;;;;;;;6.25;2.50;;;;;13.41;100.00;101325.03;5018815;28;45370;-79
2022/01/03 10:39:22;;;;;;;;;5.50;3.50;;;;;13.42;100.00;101332.88;5036932;28;45346;-77
2022/01/03 10:41:51;;;;;;;;;6.75;3.50;;;;;13.43;100.00;101339.84;5037202;28;45571;-79
2022/01/03 10:44:33;;;;;;;;;5.00;3.25;;;;;13.40;100.00;101323.25;5036440;28;46089;-80
2022/01/03 10:47:01;;;;;;;;;5.00;2.75;;;;;13.41;100.00;101335.44;5036531;28;45289;-80
2022/01/03 10:49:27;;;;;;;;;4.00;1.25;;;;;13.40;100.00;101321.50;5036874;28;45453;-79
2022/01/03 10:52:18;;;;;;;;;5.00;2.00;;;;;13.38;100.00;101320.56;5037083;28;45476;-80
2022/01/03 10:55:06;;;;;;;;;8.50;3.75;;;;;13.39;100.00;101295.41;5036203;28;46185;-81
2022/01/03 10:57:56;;;;;;;;;2.00;1.75;;;;;13.45;100.00;101311.31;5035851;28;45816;-80
2022/01/03 11:00:28;;;;;;;;;3.50;2.25;;;;;13.46;100.00;101298.38;5036616;28;45258;-79
2022/01/03 11:03:17;;;;;;;;;4.25;2.75;;;;;13.50;100.00;101288.09;5036626;28;45418;-79
2022/01/03 11:05:51;;;;;;;;;3.50;3.50;;;;;13.51;100.00;101279.44;5034799;28;46446;-79
2022/01/03 11:11:02;;;;;;;;;2.50;2.00;;;;;13.55;100.00;101270.94;5044875;28;45443;-78
2022/01/03 11:13:28;;;;;;;;;6.75;4.00;;;;;13.58;100.00;101297.09;5042763;28;45234;-82
2022/01/03 11:15:53;;;;;;;;;4.50;2.25;;;;;13.58;100.00;101279.75;5048736;28;46355;-79
2022/01/03 11:18:25;;;;;;;;;4.75;4.00;;;;;13.57;100.00;101270.19;5041270;28;45296;-83
2022/01/03 11:21:16;;;;;;;;;4.50;3.00;;;;;13.59;100.00;101275.47;5037170;28;45363;-80
2022/01/03 11:23:49;;;;;;;;;4.25;2.50;;;;;13.61;100.00;101271.19;5036925;28;45570;-79
2022/01/03 11:26:20;;;;;;;;;5.00;3.75;;;;;13.62;100.00;101263.47;5036030;28;46252;-79
2022/01/03 11:28:49;;;;;;;;;2.50;1.50;;;;;13.66;100.00;101261.00;5036052;28;45514;-79
2022/01/03 11:31:17;;;;;;;;;3.25;2.50;;;;;13.66;100.00;101279.19;5036313;28;45228;-79
2022/01/03 11:33:46;;;;;;;;;7.00;4.00;;;;;13.66;100.00;101242.78;5036371;28;45428;-80
2022/01/03 11:36:12;;;;;;;;;4.50;3.00;;;;;13.68;100.00;101239.41;5035746;28;45610;-80